createdAt,value
2022-11-04T00:00:37.572Z,100818.66
2022-11-04T00:01:42.997Z,100821.38
2022-11-04T00:02:46.084Z,100815.11
2022-11-04T00:03:49.738Z,100815.11
2022-11-04T00:04:52.820Z,100818.66
2022-11-04T00:05:55.947Z,100818.48
2022-11-04T00:06:59.022Z,100822.22
2022-11-04T00:08:20.182Z,100819.52
2022-11-04T00:09:25.923Z,100817.64
2022-11-04T00:10:47.659Z,100822.44
2022-11-04T00:12:09.697Z,100817.82
2022-11-04T00:13:12.808Z,100825.15
2022-11-04T00:14:15.965Z,100815.32
2022-11-04T00:15:37.426Z,100814.30
2022-11-04T00:16:59.238Z,100815.32
2022-11-04T00:18:02.375Z,100820.75
2022-11-04T00:19:05.363Z,100816.34
2022-11-04T00:21:52.350Z,100809.77
2022-11-04T00:23:13.767Z,100812.78
2022-11-04T00:24:35.179Z,100809.23
2022-11-04T00:25:56.791Z,100803.80
2022-11-04T00:27:18.124Z,100806.52
2022-11-04T00:28:39.809Z,100803.80
2022-11-04T00:29:42.779Z,100810.08
2022-11-04T00:30:45.649Z,100801.09
2022-11-04T00:32:06.871Z,100810.08
2022-11-04T00:33:25.271Z,100808.20
2022-11-04T00:34:28.301Z,100815.32
2022-11-04T00:35:31.244Z,100808.87
2022-11-04T00:36:34.342Z,100810.52
2022-11-04T00:37:38.740Z,100807.81
2022-11-04T00:40:21.869Z,100811.19
2022-11-04T00:41:29.246Z,100808.30
2022-11-04T00:42:32.232Z,100805.58
2022-11-04T00:43:35.213Z,100807.45
2022-11-04T00:44:38.263Z,100813.72
2022-11-04T00:45:42.126Z,100802.66
2022-11-04T00:46:45.308Z,100803.50
2022-11-04T00:47:48.177Z,100801.62
2022-11-04T00:48:51.126Z,100805.19
2022-11-04T00:49:54.279Z,100805.00
2022-11-04T00:50:57.344Z,100802.11
2022-11-04T00:52:00.374Z,100806.48
2022-11-04T00:53:04.113Z,100802.73
2022-11-04T00:54:07.198Z,100803.58
2022-11-04T00:55:10.834Z,100802.73
2022-11-04T00:56:13.838Z,100803.58
2022-11-04T00:57:16.982Z,100804.25
2022-11-04T00:58:19.947Z,100801.53
2022-11-04T00:59:22.926Z,100808.83
2022-11-04T01:00:26.209Z,100802.38
2022-11-04T01:01:29.363Z,100808.65
2022-11-04T01:02:32.549Z,100803.22
2022-11-04T01:03:35.834Z,100804.88
2022-11-04T01:04:38.898Z,100811.15
2022-11-04T01:05:41.882Z,100806.56
2022-11-04T01:06:44.971Z,100803.84
2022-11-04T01:07:47.991Z,100810.97
2022-11-04T01:09:00.075Z,100812.84
2022-11-04T01:10:03.274Z,100802.83
2022-11-04T01:11:08.306Z,100809.94
2022-11-04T01:12:11.316Z,100808.91
2022-11-04T01:13:14.287Z,100809.94
2022-11-04T01:14:17.282Z,100806.20
2022-11-04T01:15:20.551Z,100816.21
2022-11-04T01:16:24.700Z,100804.33
2022-11-04T01:17:28.250Z,100806.20
2022-11-04T01:18:31.938Z,100805.17
2022-11-04T01:19:34.951Z,100805.98
2022-11-04T01:20:37.934Z,100795.97
2022-11-04T01:21:40.893Z,100802.45
2022-11-04T01:22:44.023Z,100805.17
2022-11-04T01:23:46.965Z,100800.56
2022-11-04T01:24:50.059Z,100803.09
2022-11-04T01:25:53.063Z,100795.97
2022-11-04T01:26:56.133Z,100799.74
2022-11-04T01:27:59.108Z,100802.45
2022-11-04T01:29:02.575Z,100804.33
2022-11-04T01:30:06.478Z,100809.76
2022-11-04T01:31:12.164Z,100805.17
2022-11-04T01:32:15.377Z,100807.89
2022-11-04T01:33:18.357Z,100808.91
2022-11-04T01:34:21.358Z,100804.33
2022-11-04T01:35:24.984Z,100803.48
2022-11-04T01:36:28.145Z,100805.17
2022-11-04T01:37:31.210Z,100807.05
2022-11-04T01:38:34.583Z,100811.62
2022-11-04T01:39:37.560Z,100813.31
2022-11-04T01:40:41.080Z,100806.20
2022-11-04T01:41:44.391Z,100808.07
2022-11-04T01:42:47.678Z,100808.91
2022-11-04T01:43:56.804Z,100807.23
2022-11-04T01:45:00.821Z,100808.07
2022-11-04T01:46:04.189Z,100812.66
2022-11-04T01:47:16.232Z,100808.25
2022-11-04T01:48:28.618Z,100809.94
2022-11-04T01:49:37.909Z,100810.97
2022-11-04T01:50:40.211Z,100810.97
2022-11-04T01:51:45.308Z,100810.97
2022-11-04T01:52:54.767Z,100806.38
2022-11-04T01:53:58.290Z,100804.70
2022-11-04T01:55:04.877Z,100804.70
2022-11-04T01:56:12.242Z,100808.25
2022-11-04T01:57:21.671Z,100803.84
2022-11-04T01:58:28.217Z,100808.25
2022-11-04T01:59:34.771Z,100801.98
2022-11-04T02:00:38.945Z,100805.54
2022-11-04T02:01:43.068Z,100807.41
2022-11-04T02:02:58.992Z,100806.38
2022-11-04T02:04:20.451Z,100804.88
2022-11-04T02:05:23.514Z,100807.59
2022-11-04T02:06:26.511Z,100810.52
2022-11-04T02:07:30.696Z,100813.23
2022-11-04T02:08:35.129Z,100806.96
2022-11-04T02:09:39.694Z,100814.44
2022-11-04T02:10:46.290Z,100810.70
2022-11-04T02:12:07.424Z,100808.16
2022-11-04T02:13:11.071Z,100804.61
2022-11-04T02:14:14.448Z,100806.48
2022-11-04T02:15:26.974Z,100802.95
2022-11-04T02:16:39.480Z,100810.25
2022-11-04T02:18:00.390Z,100802.95
2022-11-04T02:19:26.420Z,100809.41
2022-11-04T02:20:38.961Z,100800.42
2022-11-04T02:22:09.850Z,100799.58
2022-11-04T02:24:36.515Z,100799.45
2022-11-04T02:26:05.825Z,100799.31
2022-11-04T02:27:30.717Z,100795.75
2022-11-04T02:28:46.046Z,100797.62
2022-11-04T02:29:52.739Z,100805.94
2022-11-04T02:31:08.460Z,100802.59
2022-11-04T02:32:40.506Z,100800.52
2022-11-04T02:33:56.233Z,100804.25
2022-11-04T02:35:09.082Z,100795.48
2022-11-04T02:36:21.899Z,100795.48
2022-11-04T02:37:46.615Z,100799.22
2022-11-04T02:38:59.298Z,100793.80
2022-11-04T02:40:09.145Z,100797.53
2022-11-04T02:41:18.676Z,100787.70
2022-11-04T02:42:40.137Z,100792.28
2022-11-04T02:44:06.535Z,100789.58
2022-11-04T02:45:31.082Z,100788.77
2022-11-04T02:46:37.703Z,100788.94
2022-11-04T02:47:44.252Z,100792.68
2022-11-04T02:48:53.489Z,100798.11
2022-11-04T02:50:02.867Z,100797.27
2022-11-04T02:51:18.144Z,100792.68
2022-11-04T02:53:45.252Z,100790.33
2022-11-04T02:54:51.790Z,100799.80
2022-11-04T02:55:57.872Z,100800.82
2022-11-04T02:57:03.481Z,100798.95
2022-11-04T02:58:12.868Z,100798.11
2022-11-04T02:59:31.519Z,100797.08
2022-11-04T03:00:38.100Z,100799.61
2022-11-04T03:01:45.956Z,100803.35
2022-11-04T03:03:01.940Z,100800.42
2022-11-04T03:04:11.799Z,100800.42
2022-11-04T03:05:18.344Z,100796.69
2022-11-04T03:06:24.366Z,100795.66
2022-11-04T03:07:31.035Z,100797.53
2022-11-04T03:08:37.337Z,100790.23
2022-11-04T03:09:43.204Z,100790.23
2022-11-04T03:10:49.843Z,100791.92
2022-11-04T03:12:00.844Z,100796.33
2022-11-04T03:13:36.052Z,100790.90
2022-11-04T03:14:42.733Z,100787.16
2022-11-04T03:15:52.169Z,100785.26
2022-11-04T03:17:01.535Z,100781.73
2022-11-04T03:18:17.168Z,100783.39
2022-11-04T03:19:46.153Z,100788.81
2022-11-04T03:20:51.079Z,100784.23
2022-11-04T03:22:03.602Z,100781.52
2022-11-04T03:23:08.558Z,100787.80
2022-11-04T03:24:11.575Z,100778.81
2022-11-04T03:25:15.155Z,100779.66
2022-11-04T03:26:31.046Z,100780.50
2022-11-04T03:27:49.840Z,100779.66
2022-11-04T03:29:02.424Z,100778.81
2022-11-04T03:30:21.063Z,100779.83
2022-11-04T03:31:27.811Z,100771.91
2022-11-04T03:32:52.260Z,100769.19
2022-11-04T03:33:57.232Z,100768.35
2022-11-04T03:35:00.624Z,100772.94
2022-11-04T03:36:04.099Z,100772.09
2022-11-04T03:37:07.543Z,100771.25
2022-11-04T03:38:10.992Z,100772.94
2022-11-04T03:39:14.162Z,100770.22
2022-11-04T03:40:20.139Z,100773.95
2022-11-04T03:41:35.480Z,100774.62
2022-11-04T03:42:42.097Z,100777.33
2022-11-04T03:43:45.711Z,100777.12
2022-11-04T03:44:57.127Z,100775.25
2022-11-04T03:46:00.337Z,100776.94
2022-11-04T03:47:03.407Z,100767.77
2022-11-04T03:48:06.831Z,100767.77
2022-11-04T03:49:12.246Z,100765.06
2022-11-04T03:50:20.760Z,100767.77
2022-11-04T03:51:23.756Z,100770.48
2022-11-04T03:52:27.111Z,100768.80
2022-11-04T03:53:33.319Z,100764.39
2022-11-04T03:54:36.331Z,100765.45
2022-11-04T03:56:11.741Z,100768.17
2022-11-04T03:57:33.293Z,100773.59
2022-11-04T03:58:43.975Z,100771.25
2022-11-04T04:00:08.405Z,100765.16
2022-11-04T04:01:30.210Z,100773.30
2022-11-04T04:02:42.763Z,100776.22
2022-11-04T04:03:55.374Z,100770.98
2022-11-04T04:05:04.746Z,100775.56
2022-11-04T04:06:17.525Z,100779.11
2022-11-04T04:07:24.063Z,100782.85
2022-11-04T04:08:42.292Z,100784.54
2022-11-04T04:09:48.879Z,100789.13
2022-11-04T04:11:07.379Z,100788.28
2022-11-04T04:12:19.639Z,100796.42
2022-11-04T04:13:42.920Z,100787.44
2022-11-04T04:14:53.343Z,100793.08
2022-11-04T04:16:02.533Z,100785.12
2022-11-04T04:17:20.919Z,100785.96
2022-11-04T04:18:27.647Z,100788.67
2022-11-04T04:19:32.533Z,100786.98
2022-11-04T04:20:38.109Z,100792.41
2022-11-04T04:21:50.675Z,100794.94
2022-11-04T04:22:57.267Z,100794.10
2022-11-04T04:24:22.597Z,100791.17
2022-11-04T04:25:46.564Z,100791.17
2022-11-04T04:27:10.499Z,100791.17
2022-11-04T04:28:16.958Z,100800.16
2022-11-04T04:29:21.545Z,100799.31
2022-11-04T04:30:25.929Z,100797.44
2022-11-04T04:31:50.192Z,100792.02
2022-11-04T04:34:07.750Z,100796.78
2022-11-04T04:35:29.246Z,100802.51
2022-11-04T04:36:35.859Z,100800.42
2022-11-04T04:37:40.980Z,100799.41
2022-11-04T04:39:02.806Z,100802.95
2022-11-04T04:40:26.546Z,100802.78
2022-11-04T04:41:49.417Z,100801.75
2022-11-04T04:43:11.422Z,100803.44
2022-11-04T04:44:44.987Z,100806.78
2022-11-04T04:45:53.568Z,100807.81
2022-11-04T04:46:57.995Z,100815.95
2022-11-04T04:48:01.481Z,100814.08
2022-11-04T04:49:07.225Z,100812.22
2022-11-04T04:50:17.074Z,100805.77
2022-11-04T04:51:21.386Z,100809.32
2022-11-04T04:52:26.767Z,100809.98
2022-11-04T04:53:29.799Z,100816.89
2022-11-04T04:54:32.913Z,100819.42
2022-11-04T04:55:40.652Z,100815.67
2022-11-04T04:56:41.092Z,100825.30
2022-11-04T04:57:44.090Z,100818.84
2022-11-04T04:58:47.105Z,100829.70
2022-11-04T04:59:50.063Z,100827.83
2022-11-04T05:00:53.080Z,100825.95
2022-11-04T05:01:56.436Z,100831.39
2022-11-04T05:02:59.449Z,100833.08
2022-11-04T05:04:02.492Z,100833.08
2022-11-04T05:05:06.257Z,100839.98
2022-11-04T05:06:10.716Z,100834.73
2022-11-04T05:07:13.952Z,100836.42
2022-11-04T05:08:17.116Z,100838.95
2022-11-04T05:09:21.008Z,100836.23
2022-11-04T05:10:24.195Z,100835.39
2022-11-04T05:11:27.522Z,100840.64
2022-11-04T05:12:32.493Z,100842.33
2022-11-04T05:13:35.602Z,100842.11
2022-11-04T05:14:38.751Z,100842.96
2022-11-04T05:15:41.884Z,100840.91
2022-11-04T05:16:45.386Z,100843.63
2022-11-04T05:17:50.221Z,100841.54
2022-11-04T05:18:53.323Z,100837.80
2022-11-04T05:19:56.388Z,100842.86
2022-11-04T05:21:01.521Z,100833.69
2022-11-04T05:22:04.627Z,100839.75
2022-11-04T05:23:09.752Z,100840.41
2022-11-04T05:24:12.898Z,100833.11
2022-11-04T05:25:16.011Z,100838.15
2022-11-04T05:26:19.557Z,100839.83
2022-11-04T05:27:23.690Z,100841.13
2022-11-04T05:28:26.602Z,100841.13
2022-11-04T05:29:29.882Z,100844.50
2022-11-04T05:30:33.454Z,100840.77
2022-11-04T05:31:36.434Z,100852.47
2022-11-04T05:32:39.453Z,100857.68
2022-11-04T05:33:42.630Z,100856.66
2022-11-04T05:34:47.005Z,100851.22
2022-11-04T05:35:49.975Z,100856.47
2022-11-04T05:36:53.388Z,100855.62
2022-11-04T05:37:56.645Z,100866.09
2022-11-04T05:38:59.560Z,100858.79
2022-11-04T05:40:02.454Z,100865.06
2022-11-04T05:41:07.399Z,100866.75
2022-11-04T05:42:10.668Z,100863.02
2022-11-04T05:43:13.767Z,100866.39
2022-11-04T05:44:16.970Z,100868.89
2022-11-04T05:45:20.559Z,100864.30
2022-11-04T05:46:24.000Z,100873.30
2022-11-04T05:47:27.080Z,100864.96
2022-11-04T05:48:30.180Z,100871.02
2022-11-04T05:49:33.166Z,100871.02
2022-11-04T05:50:36.436Z,100869.99
2022-11-04T05:51:39.399Z,100867.94
2022-11-04T05:52:43.180Z,100865.88
2022-11-04T05:53:47.045Z,100875.50
2022-11-04T05:54:50.053Z,100876.38
2022-11-04T05:55:53.094Z,100874.51
2022-11-04T05:56:56.093Z,100877.86
2022-11-04T05:57:59.161Z,100880.39
2022-11-04T05:59:02.161Z,100880.39
2022-11-04T06:00:06.459Z,100881.89
2022-11-04T06:01:16.428Z,100881.05
2022-11-04T06:02:19.658Z,100886.30
2022-11-04T06:03:23.514Z,100886.92
2022-11-04T06:04:26.740Z,100882.52
2022-11-04T06:05:30.171Z,100889.45
2022-11-04T06:06:35.706Z,100889.45
2022-11-04T06:07:38.832Z,100885.05
2022-11-04T06:08:45.132Z,100893.86
2022-11-04T06:09:46.931Z,100890.30
2022-11-04T06:10:50.172Z,100889.27
2022-11-04T06:11:53.239Z,100892.83
2022-11-04T06:12:57.247Z,100894.48
2022-11-04T06:14:00.365Z,100888.88
2022-11-04T06:15:04.381Z,100891.41
2022-11-04T06:16:07.984Z,100896.84
2022-11-04T06:17:18.685Z,100897.69
2022-11-04T06:18:21.885Z,100896.66
2022-11-04T06:19:24.994Z,100902.91
2022-11-04T06:20:28.007Z,100897.47
2022-11-04T06:21:32.849Z,100904.59
2022-11-04T06:22:35.981Z,100899.16
2022-11-04T06:23:39.568Z,100894.75
2022-11-04T06:24:43.353Z,100903.75
2022-11-04T06:25:46.399Z,100900.19
2022-11-04T06:26:49.489Z,100899.38
2022-11-04T06:27:52.438Z,100902.91
2022-11-04T06:28:56.630Z,100907.31
2022-11-04T06:29:59.715Z,100909.00
2022-11-04T06:31:04.403Z,100903.56
2022-11-04T06:32:13.048Z,100906.28
2022-11-04T06:33:16.142Z,100911.53
2022-11-04T06:34:19.192Z,100912.56
2022-11-04T06:35:22.385Z,100909.00
2022-11-04T06:36:25.418Z,100906.28
2022-11-04T06:37:28.564Z,100906.28
2022-11-04T06:38:32.892Z,100901.87
2022-11-04T06:39:36.340Z,100907.31
2022-11-04T06:40:39.533Z,100906.28
2022-11-04T06:41:43.109Z,100900.00
2022-11-04T06:42:46.556Z,100908.16
2022-11-04T06:43:49.534Z,100911.72
2022-11-04T06:44:52.766Z,100903.56
2022-11-04T06:45:56.968Z,100898.13
2022-11-04T06:47:00.240Z,100905.25
2022-11-04T06:48:03.349Z,100905.06
2022-11-04T06:49:09.313Z,100905.91
2022-11-04T06:50:12.922Z,100899.41
2022-11-04T06:51:16.249Z,100899.23
2022-11-04T06:52:19.830Z,100902.79
2022-11-04T06:53:22.789Z,100895.30
2022-11-04T06:54:25.677Z,100898.86
2022-11-04T06:55:28.817Z,100899.67
2022-11-04T06:56:31.771Z,100901.17
2022-11-04T06:57:34.804Z,100896.58
2022-11-04T06:58:37.864Z,100905.58
2022-11-04T06:59:40.840Z,100899.95
2022-11-04T07:00:45.158Z,100901.61
2022-11-04T07:01:51.533Z,100897.23
2022-11-04T07:02:55.895Z,100895.33
2022-11-04T07:04:00.220Z,100899.95
2022-11-04T07:05:04.387Z,100897.02
2022-11-04T07:06:09.057Z,100904.14
2022-11-04T07:07:12.248Z,100906.68
2022-11-04T07:08:15.745Z,100899.15
2022-11-04T07:09:19.142Z,100908.81
2022-11-04T07:10:22.141Z,100906.75
2022-11-04T07:11:26.110Z,100900.25
2022-11-04T07:12:29.466Z,100902.78
2022-11-04T07:13:32.508Z,100903.44
2022-11-04T07:14:35.485Z,100905.94
2022-11-04T07:15:39.661Z,100903.22
2022-11-04T07:16:42.790Z,100903.22
2022-11-04T07:17:46.423Z,100905.13
2022-11-04T07:18:51.314Z,100902.41
2022-11-04T07:19:54.502Z,100902.59
2022-11-04T07:20:58.436Z,100898.84
2022-11-04T07:22:01.528Z,100897.78
2022-11-04T07:23:05.028Z,100905.13
2022-11-04T07:24:07.957Z,100897.59
2022-11-04T07:25:11.029Z,100902.00
2022-11-04T07:26:14.319Z,100905.56
2022-11-04T07:27:17.217Z,100907.25
2022-11-04T07:28:20.894Z,100898.88
2022-11-04T07:29:25.142Z,100907.03
2022-11-04T07:30:28.139Z,100905.81
2022-11-04T07:31:31.131Z,100909.19
2022-11-04T07:32:34.339Z,100909.81
2022-11-04T07:33:37.218Z,100904.19
2022-11-04T07:34:41.294Z,100914.03
2022-11-04T07:35:45.184Z,100909.22
2022-11-04T07:36:48.317Z,100909.03
2022-11-04T07:37:51.499Z,100912.41
2022-11-04T07:38:54.665Z,100909.50
2022-11-04T07:39:57.698Z,100909.50
2022-11-04T07:41:02.019Z,100908.44
2022-11-04T07:42:07.968Z,100915.56
2022-11-04T07:43:11.213Z,100913.50
2022-11-04T07:44:14.482Z,100917.91
2022-11-04T07:45:17.510Z,100907.03
2022-11-04T07:46:21.498Z,100915.81
2022-11-04T07:47:24.668Z,100913.75
2022-11-04T07:48:27.649Z,100917.12
2022-11-04T07:49:30.911Z,100916.72
2022-11-04T07:50:34.404Z,100911.09
2022-11-04T07:51:37.416Z,100912.77
2022-11-04T07:52:40.557Z,100911.52
2022-11-04T07:53:43.862Z,100917.61
2022-11-04T07:54:46.885Z,100916.17
2022-11-04T07:55:50.592Z,100917.67
2022-11-04T07:56:53.605Z,100914.73
2022-11-04T07:57:56.750Z,100912.47
2022-11-04T07:58:59.776Z,100918.53
2022-11-04T08:00:06.123Z,100925.48
2022-11-04T08:01:16.891Z,100925.91
2022-11-04T08:02:25.801Z,100921.96
2022-11-04T08:03:25.013Z,100920.70
2022-11-04T08:04:28.294Z,100924.08
2022-11-04T08:05:31.359Z,100927.42
2022-11-04T08:06:34.513Z,100924.31
2022-11-04T08:07:37.594Z,100928.73
2022-11-04T08:08:42.653Z,100932.07
2022-11-04T08:09:45.744Z,100922.67
2022-11-04T08:10:53.652Z,100912.63
2022-11-04T08:11:56.693Z,100923.33
2022-11-04T08:12:59.760Z,100921.64
2022-11-04T08:14:04.066Z,100918.92
2022-11-04T08:15:07.639Z,100920.80
2022-11-04T08:16:14.233Z,100922.67
2022-11-04T08:17:17.540Z,100917.23
2022-11-04T08:18:20.684Z,100916.20
2022-11-04T08:19:23.743Z,100917.88
2022-11-04T08:20:27.248Z,100915.16
2022-11-04T08:21:32.078Z,100913.91
2022-11-04T08:22:35.233Z,100918.31
2022-11-04T08:23:38.439Z,100913.71
2022-11-04T08:24:41.528Z,100922.50
2022-11-04T08:25:45.857Z,100916.24
2022-11-04T08:26:49.074Z,100917.89
2022-11-04T08:27:54.534Z,100915.39
2022-11-04T08:28:57.029Z,100915.39
2022-11-04T08:30:00.149Z,100914.55
2022-11-04T08:31:06.736Z,100915.59
2022-11-04T08:32:09.766Z,100911.18
2022-11-04T08:33:12.986Z,100913.06
2022-11-04T08:34:17.853Z,100913.06
2022-11-04T08:35:20.856Z,100906.58
2022-11-04T08:36:27.417Z,100906.58
2022-11-04T08:37:30.457Z,100917.27
2022-11-04T08:38:34.129Z,100911.61
2022-11-04T08:39:37.116Z,100921.47
2022-11-04T08:40:40.149Z,100917.70
2022-11-04T08:41:44.919Z,100912.06
2022-11-04T08:42:47.781Z,100911.03
2022-11-04T08:43:50.937Z,100911.65
2022-11-04T08:44:54.039Z,100909.38
2022-11-04T08:45:57.235Z,100917.55
2022-11-04T08:47:00.852Z,100920.70
2022-11-04T08:48:05.670Z,100918.83
2022-11-04T08:49:11.274Z,100915.06
2022-11-04T08:50:13.892Z,100913.99
2022-11-04T08:51:20.001Z,100907.52
2022-11-04T08:52:24.238Z,100909.00
2022-11-04T08:53:27.412Z,100909.62
2022-11-04T08:54:30.378Z,100915.72
2022-11-04T08:55:34.044Z,100914.68
2022-11-04T08:56:39.141Z,100909.04
2022-11-04T08:57:42.183Z,100915.11
2022-11-04T08:58:45.474Z,100914.06
2022-11-04T08:59:48.575Z,100913.88
2022-11-04T09:00:51.987Z,100919.33
2022-11-04T09:01:55.218Z,100910.95
2022-11-04T09:02:58.387Z,100915.98
2022-11-04T09:04:01.212Z,100915.79
2022-11-04T09:05:04.900Z,100910.11
2022-11-04T09:06:11.062Z,100907.39
2022-11-04T09:07:14.194Z,100917.47
2022-11-04T09:08:17.699Z,100912.03
2022-11-04T09:09:21.655Z,100911.19
2022-11-04T09:10:24.699Z,100913.68
2022-11-04T09:11:27.751Z,100904.47
2022-11-04T09:12:30.715Z,100911.41
2022-11-04T09:13:39.263Z,100901.13
2022-11-04T09:14:38.877Z,100903.69
2022-11-04T09:15:42.743Z,100900.77
2022-11-04T09:16:45.658Z,100906.22
2022-11-04T09:17:48.601Z,100900.57
2022-11-04T09:18:51.765Z,100902.03
2022-11-04T09:19:55.055Z,100906.44
2022-11-04T09:21:02.695Z,100907.90
2022-11-04T09:22:05.693Z,100903.09
2022-11-04T09:23:09.867Z,100899.98
2022-11-04T09:24:13.473Z,100900.59
2022-11-04T09:25:16.467Z,100899.36
2022-11-04T09:26:21.089Z,100893.67
2022-11-04T09:27:23.949Z,100901.46
2022-11-04T09:28:26.959Z,100897.47
2022-11-04T09:29:32.000Z,100897.27
2022-11-04T09:30:36.011Z,100902.33
2022-11-04T09:31:39.270Z,100898.52
2022-11-04T09:32:42.226Z,100901.90
2022-11-04T09:33:45.686Z,100894.56
2022-11-04T09:34:48.627Z,100895.41
2022-11-04T09:35:57.996Z,100886.19
2022-11-04T09:37:01.273Z,100895.20
2022-11-04T09:38:04.219Z,100897.09
2022-11-04T09:39:07.190Z,100892.68
2022-11-04T09:40:22.848Z,100886.58
2022-11-04T09:41:52.465Z,100889.30
2022-11-04T09:43:08.132Z,100892.88
2022-11-04T09:44:24.225Z,100895.60
2022-11-04T09:45:29.339Z,100893.72
2022-11-04T09:46:34.639Z,100892.03
2022-11-04T09:47:40.076Z,100891.84
2022-11-04T09:48:49.256Z,100887.22
2022-11-04T09:49:57.023Z,100890.80
2022-11-04T09:51:03.644Z,100887.03
2022-11-04T09:52:10.088Z,100895.20
2022-11-04T09:53:19.451Z,100886.19
2022-11-04T09:54:28.961Z,100887.84
2022-11-04T09:55:41.639Z,100896.02
2022-11-04T09:56:48.447Z,100892.48
2022-11-04T09:57:55.114Z,100895.20
2022-11-04T09:58:58.167Z,100896.02
2022-11-04T10:00:01.359Z,100897.09
2022-11-04T10:01:35.267Z,100899.81
2022-11-04T10:02:53.641Z,100900.86
2022-11-04T10:04:14.972Z,100901.05
2022-11-04T10:05:39.399Z,100899.37
2022-11-04T10:06:51.479Z,100898.75
2022-11-04T10:08:26.558Z,100900.84
2022-11-04T10:09:36.151Z,100900.19
2022-11-04T10:10:48.843Z,100896.85
2022-11-04T10:13:40.596Z,100903.14
2022-11-04T10:15:07.944Z,100898.52
2022-11-04T13:32:39.556Z,100903.66
2022-11-04T13:34:07.208Z,100895.07
2022-11-04T13:35:30.616Z,100894.31
2022-11-04T13:36:43.064Z,100901.03
2022-11-04T13:38:09.613Z,100897.56
2022-11-04T13:40:48.694Z,100902.20
2022-11-04T13:42:17.721Z,100910.45
2022-11-04T13:43:39.293Z,100909.24
2022-11-04T13:44:50.881Z,100908.66
2022-11-04T13:45:56.264Z,100905.58
2022-11-04T13:47:03.035Z,100908.73
2022-11-04T13:48:09.928Z,100909.40
2022-11-04T13:49:16.620Z,100908.16
2022-11-04T13:50:38.211Z,100908.63
2022-11-04T13:51:49.615Z,100905.51
2022-11-04T13:52:53.118Z,100905.95
2022-11-04T13:53:57.884Z,100908.30
2022-11-04T13:55:08.090Z,100916.05
2022-11-04T13:56:34.949Z,100911.27
2022-11-04T13:57:35.005Z,100906.49
2022-11-04T13:58:41.843Z,100911.53
2022-11-04T14:00:04.079Z,100906.75
2022-11-04T14:01:25.847Z,100907.38
2022-11-04T14:02:38.861Z,100904.47
2022-11-04T14:03:53.981Z,100909.72
2022-11-04T14:04:57.343Z,100910.56
2022-11-04T14:06:03.908Z,100914.94
2022-11-04T14:07:10.085Z,100915.59
2022-11-04T14:08:15.498Z,100918.13
2022-11-04T14:09:30.911Z,100916.88
2022-11-04T14:10:46.481Z,100914.16
2022-11-04T14:12:19.050Z,100913.12
2022-11-04T14:13:36.096Z,100913.97
2022-11-04T14:14:44.517Z,100915.66
2022-11-04T14:15:59.953Z,100913.78
2022-11-04T14:17:04.873Z,100913.78
2022-11-04T14:18:13.102Z,100920.91
2022-11-04T14:19:38.194Z,100921.95
2022-11-04T14:20:46.380Z,100920.07
2022-11-04T14:22:09.534Z,100920.91
2022-11-04T14:23:16.192Z,100919.00
2022-11-04T14:24:19.476Z,100925.29
2022-11-04T14:25:28.815Z,100930.73
2022-11-04T14:26:43.901Z,100927.82
2022-11-04T14:27:49.329Z,100925.95
2022-11-04T14:29:01.791Z,100924.06
2022-11-04T14:30:07.008Z,100921.35
2022-11-04T14:31:17.437Z,100926.61
2022-11-04T14:32:24.519Z,100922.81
2022-11-04T14:33:54.622Z,100928.26
2022-11-04T14:35:01.130Z,100924.51
2022-11-04T14:36:22.683Z,100925.54
2022-11-04T14:38:43.253Z,100927.95
2022-11-04T14:39:49.673Z,100927.45
2022-11-04T14:41:14.700Z,100926.61
2022-11-04T14:42:21.108Z,100929.52
2022-11-04T14:43:30.873Z,100926.61
2022-11-04T14:44:45.639Z,100932.05
2022-11-04T14:45:47.977Z,100927.45
2022-11-04T14:46:54.104Z,100930.98
2022-11-04T14:48:15.778Z,100924.73
2022-11-04T14:49:28.347Z,100920.32
2022-11-04T14:50:31.453Z,100931.82
2022-11-04T14:51:40.442Z,100930.35
2022-11-04T14:52:49.859Z,100934.10
2022-11-04T14:53:56.563Z,100931.39
2022-11-04T14:55:11.985Z,100924.26
2022-11-04T14:56:23.518Z,100925.10
2022-11-04T14:57:24.338Z,100930.54
2022-11-04T14:58:30.123Z,100926.98
2022-11-04T14:59:33.087Z,100934.10
2022-11-04T15:00:51.002Z,100930.54
2022-11-04T15:01:55.545Z,100930.73
2022-11-04T15:03:02.181Z,100925.29
2022-11-04T15:04:17.844Z,100930.73
2022-11-04T15:05:24.304Z,100928.85
2022-11-04T15:06:40.673Z,100931.57
2022-11-04T15:07:37.439Z,100936.17
2022-11-04T15:08:46.383Z,100936.17
2022-11-04T15:09:50.078Z,100936.17
2022-11-04T15:11:00.130Z,100940.76
2022-11-04T15:12:33.628Z,100932.60
2022-11-04T15:13:46.007Z,100932.82
2022-11-04T15:14:49.010Z,100936.38
2022-11-04T15:15:55.315Z,100933.01
2022-11-04T15:16:59.575Z,100933.01
2022-11-04T15:18:11.561Z,100937.60
2022-11-04T15:19:26.909Z,100929.44
2022-11-04T15:20:31.048Z,100931.51
2022-11-04T15:21:40.203Z,100934.22
2022-11-04T15:22:43.710Z,100933.41
2022-11-04T15:23:49.717Z,100931.72
2022-11-04T15:24:52.976Z,100932.75
2022-11-04T15:25:56.867Z,100929.19
2022-11-04T15:27:03.202Z,100939.22
2022-11-04T15:28:09.745Z,100932.94
2022-11-04T15:29:14.435Z,100929.59
2022-11-04T15:30:30.390Z,100930.41
2022-11-04T15:31:34.954Z,100930.41
2022-11-04T15:32:37.961Z,100938.78
2022-11-04T15:33:44.193Z,100944.22
2022-11-04T15:34:47.723Z,100930.81
2022-11-04T15:35:51.738Z,100937.28
2022-11-04T15:36:58.047Z,100929.97
2022-11-04T15:38:03.345Z,100939.38
2022-11-04T15:39:30.866Z,100942.09
2022-11-04T15:40:34.746Z,100939.56
2022-11-04T15:41:57.995Z,100945.17
2022-11-04T15:43:03.484Z,100943.48
2022-11-04T15:44:21.690Z,100954.95
2022-11-04T15:45:51.367Z,100948.89
2022-11-04T15:47:00.468Z,100954.51
2022-11-04T15:48:23.295Z,100952.37
2022-11-04T15:49:29.086Z,100954.43
2022-11-04T15:50:32.183Z,100954.83
2022-11-04T15:51:38.790Z,100946.02
2022-11-04T15:52:50.928Z,100956.05
2022-11-04T15:53:59.984Z,100951.45
2022-11-04T15:55:04.843Z,100951.63
2022-11-04T15:56:08.539Z,100950.79
2022-11-04T15:57:20.684Z,100957.91
2022-11-04T15:58:25.315Z,100955.37
2022-11-04T15:59:34.577Z,100958.09
2022-11-04T16:00:37.534Z,100959.16
2022-11-04T16:01:48.848Z,100956.44
2022-11-04T16:03:00.681Z,100958.31
2022-11-04T16:04:05.833Z,100961.03
2022-11-04T16:05:18.079Z,100959.34
2022-11-04T16:07:46.931Z,100949.00
2022-11-04T16:09:04.877Z,100956.63
2022-11-04T16:10:24.359Z,100962.23
2022-11-04T16:11:27.398Z,100954.09
2022-11-04T16:12:35.922Z,100955.33
2022-11-04T16:13:39.605Z,100962.64
2022-11-04T16:14:50.546Z,100959.08
2022-11-04T16:16:05.033Z,100960.77
2022-11-04T16:17:10.594Z,100963.48
2022-11-04T16:18:39.587Z,100963.48
2022-11-04T16:19:45.525Z,100960.77
2022-11-04T16:20:52.421Z,100966.20